createdAt,value
2019-02-20T00:01:41.089Z,8.13
2019-02-20T00:04:10.830Z,8.13
2019-02-20T00:06:40.587Z,9.03
2019-02-20T00:09:10.117Z,9.77
2019-02-20T00:11:39.755Z,10.23
2019-02-20T00:14:09.655Z,10.17
2019-02-20T00:16:39.371Z,10.37
2019-02-20T00:19:08.972Z,11.30
2019-02-20T00:21:38.470Z,11.63
2019-02-20T00:24:07.971Z,11.30
2019-02-20T00:26:37.480Z,11.13
2019-02-20T00:29:06.954Z,11.80
2019-02-20T00:31:36.502Z,10.53
2019-02-20T00:34:06.037Z,11.03
2019-02-20T00:36:35.454Z,11.93
2019-02-20T00:39:07.811Z,11.70
2019-02-20T00:41:37.417Z,12.60
2019-02-20T00:44:25.783Z,13.13
2019-02-20T00:47:25.582Z,12.13
2019-02-20T00:49:55.075Z,12.20
2019-02-20T00:52:49.620Z,11.47
2019-02-20T00:55:14.606Z,11.93
2019-02-20T00:57:44.046Z,12.23
2019-02-20T01:00:14.723Z,13.20
2019-02-20T01:02:45.668Z,12.80
2019-02-20T01:05:15.333Z,17.37
2019-02-20T01:07:45.124Z,11.90
2019-02-20T01:10:16.915Z,12.27
2019-02-20T01:12:46.598Z,12.17
2019-02-20T01:15:16.237Z,12.57
2019-02-20T01:17:45.891Z,12.83
2019-02-20T01:20:15.518Z,12.60
2019-02-20T01:22:45.048Z,12.77
2019-02-20T01:25:14.729Z,13.43
2019-02-20T01:27:44.437Z,13.10
2019-02-20T01:30:14.094Z,13.73
2019-02-20T01:32:43.809Z,14.03
2019-02-20T01:35:13.549Z,13.53
2019-02-20T01:37:43.111Z,14.67
2019-02-20T01:40:12.690Z,14.70
2019-02-20T01:42:42.192Z,15.53
2019-02-20T01:45:11.746Z,16.23
2019-02-20T01:47:41.226Z,15.57
2019-02-20T01:50:10.956Z,14.80
2019-02-20T01:52:40.439Z,13.97
2019-02-20T01:55:09.919Z,14.30
2019-02-20T01:57:39.472Z,14.27
2019-02-20T02:00:09.996Z,14.80
2019-02-20T02:02:39.462Z,13.67
2019-02-20T02:05:14.881Z,13.70
2019-02-20T02:07:40.100Z,15.93
2019-02-20T02:10:09.659Z,14.73
2019-02-20T02:12:39.169Z,14.63
2019-02-20T02:15:10.095Z,15.43
2019-02-20T02:17:39.510Z,14.10
2019-02-20T02:20:09.319Z,15.33
2019-02-20T02:22:38.824Z,16.03
2019-02-20T02:25:08.465Z,15.00
2019-02-20T02:27:38.431Z,15.37
2019-02-20T02:30:09.179Z,14.37
2019-02-20T02:32:38.658Z,15.83
2019-02-20T02:35:09.408Z,15.77
2019-02-20T02:37:38.963Z,15.20
2019-02-20T02:40:08.810Z,15.87
2019-02-20T02:42:38.525Z,15.53
2019-02-20T02:45:08.086Z,16.17
2019-02-20T02:47:37.665Z,15.07
2019-02-20T02:50:07.582Z,15.33
2019-02-20T02:52:37.302Z,15.83
2019-02-20T02:55:07.287Z,16.37
2019-02-20T02:57:36.824Z,16.00
2019-02-20T03:00:06.967Z,15.63
2019-02-20T03:02:36.912Z,16.07
2019-02-20T03:05:06.764Z,15.63
2019-02-20T03:07:36.205Z,16.20
2019-02-20T03:10:06.201Z,17.30
2019-02-20T03:12:36.068Z,15.63
2019-02-20T03:15:06.220Z,15.20
2019-02-20T03:17:35.677Z,16.07
2019-02-20T03:20:05.545Z,15.83
2019-02-20T03:22:35.131Z,16.13
2019-02-20T03:25:04.890Z,16.13
2019-02-20T03:27:34.356Z,16.57
2019-02-20T03:30:04.028Z,17.30
2019-02-20T03:32:33.647Z,17.97
2019-02-20T03:35:03.141Z,18.97
2019-02-20T03:37:32.793Z,17.70
2019-02-20T03:40:02.366Z,18.07
2019-02-20T03:42:31.840Z,17.87
2019-02-20T03:45:01.380Z,18.83
2019-02-20T03:47:30.978Z,18.37
2019-02-20T03:50:00.481Z,19.03
2019-02-20T03:52:30.267Z,17.80
2019-02-20T03:54:59.710Z,18.57
2019-02-20T03:57:29.278Z,17.57
2019-02-20T03:59:58.786Z,19.53
2019-02-20T04:02:28.307Z,17.43
2019-02-20T04:04:57.860Z,18.70
2019-02-20T04:07:27.422Z,19.10
2019-02-20T04:09:57.004Z,18.47
2019-02-20T04:12:26.614Z,19.53
2019-02-20T04:14:56.976Z,18.63
2019-02-20T04:17:26.539Z,18.63
2019-02-20T04:19:56.660Z,19.53
2019-02-20T04:22:26.494Z,19.07
2019-02-20T04:24:55.997Z,17.57
2019-02-20T04:27:25.606Z,19.97
2019-02-20T04:29:55.341Z,19.57
2019-02-20T04:32:25.020Z,20.27
2019-02-20T04:34:54.604Z,18.90
2019-02-20T04:37:24.037Z,20.20
2019-02-20T04:39:53.566Z,19.30
2019-02-20T04:42:23.228Z,19.03
2019-02-20T04:44:52.750Z,18.80
2019-02-20T04:47:22.350Z,18.47
2019-02-20T04:49:52.102Z,18.37
2019-02-20T04:52:21.571Z,19.87
2019-02-20T04:54:51.105Z,18.97
2019-02-20T04:57:20.787Z,18.50
2019-02-20T04:59:50.351Z,18.30
2019-02-20T05:02:19.937Z,17.97
2019-02-20T05:04:49.465Z,19.80
2019-02-20T05:07:18.931Z,19.40
2019-02-20T05:09:48.478Z,20.00
2019-02-20T05:12:18.131Z,19.23
2019-02-20T05:14:47.654Z,19.27
2019-02-20T05:17:17.151Z,18.60
2019-02-20T05:19:46.628Z,20.43
2019-02-20T05:22:16.211Z,20.30
2019-02-20T05:24:45.790Z,20.47
2019-02-20T05:27:15.245Z,20.43
2019-02-20T05:29:44.725Z,20.43
2019-02-20T05:32:17.479Z,20.37
2019-02-20T05:34:47.217Z,20.23
2019-02-20T05:37:16.837Z,23.63
2019-02-20T05:39:46.280Z,24.27
2019-02-20T05:42:15.760Z,23.23
2019-02-20T05:44:45.245Z,21.97
2019-02-20T05:47:14.842Z,21.23
2019-02-20T05:49:47.136Z,21.57
2019-02-20T05:52:16.753Z,21.27
2019-02-20T05:54:46.331Z,21.50
2019-02-20T05:57:15.870Z,21.77
2019-02-20T05:59:45.649Z,22.93
2019-02-20T06:02:15.151Z,22.43
2019-02-20T06:04:44.763Z,22.13
2019-02-20T06:07:14.397Z,21.80
2019-02-20T06:09:43.973Z,21.37
2019-02-20T06:12:13.557Z,21.57
2019-02-20T06:14:43.113Z,23.50
2019-02-20T06:17:12.827Z,23.60
2019-02-20T06:19:42.446Z,23.07
2019-02-20T06:22:11.967Z,22.83
2019-02-20T06:24:44.035Z,22.77
2019-02-20T06:27:12.675Z,22.17
2019-02-20T06:29:42.220Z,21.47
2019-02-20T06:32:12.121Z,22.50
2019-02-20T06:34:41.854Z,22.13
2019-02-20T06:37:11.362Z,23.00
2019-02-20T06:39:40.865Z,21.47
2019-02-20T06:42:10.408Z,21.80
2019-02-20T06:44:39.978Z,22.53
2019-02-20T06:47:09.758Z,22.10
2019-02-20T06:49:40.356Z,22.57
2019-02-20T06:52:09.972Z,27.73
2019-02-20T06:54:39.643Z,24.03
2019-02-20T06:57:10.260Z,25.67
2019-02-20T06:59:40.200Z,21.60
2019-02-20T07:02:09.946Z,22.27
2019-02-20T07:04:39.680Z,22.63
2019-02-20T07:07:14.532Z,21.50
2019-02-20T07:10:46.037Z,22.60
2019-02-20T07:13:46.921Z,22.23
2019-02-20T07:17:01.128Z,23.73
2019-02-20T07:19:58.398Z,23.00
2019-02-20T07:22:42.801Z,21.53
2019-02-20T07:25:28.851Z,22.93
2019-02-20T07:28:34.360Z,23.47
2019-02-20T07:31:03.895Z,22.60
2019-02-20T07:33:33.659Z,22.53
2019-02-20T07:36:03.311Z,25.27
2019-02-20T07:38:32.962Z,25.63
2019-02-20T07:41:02.468Z,23.07
2019-02-20T07:43:32.241Z,21.47
2019-02-20T07:46:01.869Z,22.53
2019-02-20T07:48:31.332Z,22.57
2019-02-20T07:51:00.913Z,22.50
2019-02-20T07:53:30.613Z,23.97
2019-02-20T07:56:00.195Z,23.30
2019-02-20T07:58:29.682Z,24.20
2019-02-20T08:00:59.299Z,22.30
2019-02-20T08:03:29.726Z,21.80
2019-02-20T08:05:59.705Z,22.20
2019-02-20T08:08:29.170Z,21.03
2019-02-20T08:10:58.573Z,22.37
2019-02-20T08:13:28.068Z,21.43
2019-02-20T08:15:57.575Z,22.97
2019-02-20T08:18:27.016Z,23.50
2019-02-20T08:20:56.682Z,21.97
2019-02-20T08:23:26.343Z,21.80
2019-02-20T08:25:56.404Z,23.23
2019-02-20T08:28:26.236Z,20.77
2019-02-20T08:30:55.724Z,22.60
2019-02-20T08:33:25.351Z,21.97
2019-02-20T08:35:54.869Z,21.83
2019-02-20T08:38:24.583Z,22.73
2019-02-20T08:40:54.209Z,22.30
2019-02-20T08:43:23.980Z,22.10
2019-02-20T08:45:53.660Z,20.67
2019-02-20T08:48:23.589Z,21.30
2019-02-20T08:50:53.156Z,22.87
2019-02-20T08:53:22.710Z,22.33
2019-02-20T08:55:52.249Z,23.07
2019-02-20T08:58:21.930Z,21.60
2019-02-20T09:00:51.516Z,21.70
2019-02-20T09:03:21.000Z,22.10
2019-02-20T09:05:50.770Z,21.60
2019-02-20T09:08:20.276Z,21.37
2019-02-20T09:10:49.814Z,22.60
2019-02-20T09:13:19.743Z,22.27
2019-02-20T09:15:49.441Z,22.53
2019-02-20T09:18:19.309Z,21.80
2019-02-20T09:20:48.878Z,23.30
2019-02-20T09:23:18.415Z,22.60
2019-02-20T09:25:47.959Z,21.90
2019-02-20T09:28:17.503Z,21.73
2019-02-20T09:30:47.127Z,20.50
2019-02-20T09:33:16.770Z,20.90
2019-02-20T09:35:46.720Z,19.93
2019-02-20T09:38:16.358Z,19.30
2019-02-20T09:40:46.390Z,20.10
2019-02-20T09:43:15.782Z,19.57
2019-02-20T09:45:45.617Z,20.30
2019-02-20T09:48:15.168Z,20.57
2019-02-20T09:50:44.797Z,18.77
2019-02-20T09:53:15.563Z,19.83
2019-02-20T09:55:51.150Z,18.00
2019-02-20T09:58:16.330Z,18.67
2019-02-20T10:00:45.900Z,18.33
2019-02-20T10:03:15.539Z,18.93
2019-02-20T10:05:45.070Z,17.63
2019-02-20T10:08:15.418Z,17.20
2019-02-20T10:10:44.990Z,17.70
2019-02-20T10:13:14.636Z,16.87
2019-02-20T10:15:44.518Z,14.67
2019-02-20T10:18:14.092Z,15.80
2019-02-20T10:20:43.832Z,17.13
2019-02-20T10:23:13.365Z,15.53
2019-02-20T10:25:42.882Z,14.00
2019-02-20T10:28:12.636Z,14.90
2019-02-20T10:30:42.241Z,13.70
2019-02-20T10:33:12.039Z,14.40
2019-02-20T10:35:41.687Z,14.30
2019-02-20T10:38:11.315Z,13.20
2019-02-20T10:40:40.714Z,13.97
2019-02-20T10:43:10.629Z,14.00
2019-02-20T10:45:40.139Z,13.63
2019-02-20T10:48:10.667Z,13.30
2019-02-20T10:50:40.062Z,13.37
2019-02-20T10:53:09.688Z,11.80
2019-02-20T10:55:39.435Z,13.33
2019-02-20T10:58:08.979Z,12.13
2019-02-20T11:00:39.051Z,11.43
2019-02-20T11:03:09.146Z,14.47
2019-02-20T11:05:39.051Z,14.03
2019-02-20T11:08:09.025Z,13.40
2019-02-20T11:10:38.626Z,13.77
2019-02-20T11:13:08.398Z,12.37
2019-02-20T11:15:38.001Z,13.20
2019-02-20T11:18:07.615Z,14.30
2019-02-20T11:20:37.215Z,13.23
2019-02-20T11:23:07.082Z,13.97
2019-02-20T11:25:36.697Z,14.23
2019-02-20T11:28:06.190Z,13.73
2019-02-20T11:30:35.720Z,13.30
2019-02-20T11:33:05.235Z,13.63
2019-02-20T11:35:34.822Z,12.77
2019-02-20T11:38:04.300Z,13.93
2019-02-20T11:40:34.060Z,13.20
2019-02-20T11:43:03.631Z,16.40
2019-02-20T11:45:33.296Z,13.13
2019-02-20T11:48:03.666Z,14.17
2019-02-20T11:50:33.329Z,13.37
2019-02-20T11:53:03.049Z,13.73
2019-02-20T11:55:32.643Z,12.90
2019-02-20T11:58:02.337Z,13.93
2019-02-20T12:00:31.892Z,13.77
2019-02-20T12:03:01.549Z,13.57
2019-02-20T12:05:31.084Z,13.43
2019-02-20T12:08:00.815Z,14.57
2019-02-20T12:10:30.438Z,14.03
2019-02-20T12:13:00.882Z,14.17
2019-02-20T12:15:30.409Z,13.70
2019-02-20T12:17:59.921Z,13.50
2019-02-20T12:20:29.367Z,13.13
2019-02-20T12:22:59.199Z,13.90
2019-02-20T12:25:29.082Z,13.63
2019-02-20T12:27:58.614Z,15.57
2019-02-20T12:30:28.392Z,14.20
2019-02-20T12:32:58.099Z,15.13
2019-02-20T12:35:27.807Z,12.17
2019-02-20T12:37:57.321Z,12.37
2019-02-20T12:40:27.163Z,12.23
2019-02-20T12:42:56.759Z,11.97
2019-02-20T12:45:26.304Z,12.53
2019-02-20T12:47:55.925Z,10.90
2019-02-20T12:50:25.752Z,12.07
2019-02-20T12:52:55.375Z,12.17
2019-02-20T12:55:24.887Z,11.13
2019-02-20T12:57:55.032Z,11.83
2019-02-20T13:00:24.537Z,12.10
2019-02-20T13:02:54.224Z,11.13
2019-02-20T13:05:24.357Z,12.07
2019-02-20T13:07:53.932Z,9.93
2019-02-20T13:10:23.611Z,10.10
2019-02-20T13:12:53.263Z,9.73
2019-02-20T13:15:22.967Z,11.40
2019-02-20T13:17:52.624Z,10.87
2019-02-20T13:20:22.141Z,10.07
2019-02-20T13:22:51.643Z,11.20
2019-02-20T13:25:21.234Z,9.97
2019-02-20T13:27:50.872Z,9.37
2019-02-20T13:30:20.309Z,8.97
2019-02-20T13:32:51.041Z,7.77
2019-02-20T13:35:20.634Z,7.87
2019-02-20T13:37:50.286Z,7.20
2019-02-20T13:40:19.982Z,8.70
2019-02-20T13:42:49.647Z,6.07
2019-02-20T13:45:19.109Z,7.30
2019-02-20T13:47:48.671Z,7.60
2019-02-20T13:50:18.322Z,6.90
2019-02-20T13:52:52.291Z,7.43
2019-02-20T13:55:18.898Z,8.60
2019-02-20T13:57:48.482Z,7.07
2019-02-20T14:00:18.184Z,7.03
2019-02-20T14:02:47.681Z,6.60
2019-02-20T14:05:17.592Z,6.80
2019-02-20T14:07:47.367Z,6.73
2019-02-20T14:10:16.920Z,7.23
2019-02-20T14:12:46.603Z,6.77
2019-02-20T14:15:17.477Z,7.90
2019-02-20T14:17:47.381Z,7.30
2019-02-20T14:20:16.921Z,7.27
2019-02-20T14:22:46.554Z,6.30
2019-02-20T14:25:16.129Z,6.43
2019-02-20T14:27:45.559Z,6.40
2019-02-20T14:30:15.204Z,7.60
2019-02-20T14:32:44.963Z,5.73
2019-02-20T14:35:15.156Z,6.93
2019-02-20T14:37:44.627Z,6.20
2019-02-20T14:40:14.551Z,5.77
2019-02-20T14:42:44.364Z,6.07
2019-02-20T14:45:14.068Z,5.97
2019-02-20T14:47:43.542Z,5.30
2019-02-20T14:50:13.764Z,2.90
2019-02-20T14:52:43.301Z,3.03
2019-02-20T14:55:12.732Z,3.63
2019-02-20T14:57:42.827Z,2.80
2019-02-20T15:00:13.582Z,2.80
2019-02-20T15:02:43.036Z,2.60
2019-02-20T15:05:12.730Z,3.17
2019-02-20T15:07:42.826Z,3.50
2019-02-20T15:10:12.676Z,4.67
2019-02-20T15:12:49.403Z,4.90
2019-02-20T15:15:19.400Z,5.80
2019-02-20T15:17:52.357Z,6.67
2019-02-20T15:20:21.976Z,7.37
2019-02-20T15:22:51.868Z,7.70
2019-02-20T15:25:22.180Z,8.53
2019-02-20T15:27:51.740Z,8.43
2019-02-20T15:30:21.468Z,9.23
2019-02-20T15:32:51.794Z,9.50
2019-02-20T15:35:21.422Z,10.10
2019-02-20T15:37:51.059Z,10.70
2019-02-20T15:40:21.230Z,10.60
2019-02-20T15:43:16.222Z,10.33
2019-02-20T15:45:46.198Z,9.17
2019-02-20T15:48:23.129Z,10.60
2019-02-20T15:50:47.255Z,11.17
2019-02-20T15:53:17.466Z,13.93
2019-02-20T15:55:47.294Z,11.30
2019-02-20T15:58:18.077Z,11.70
2019-02-20T16:00:48.457Z,11.47
2019-02-20T16:03:17.926Z,11.93
2019-02-20T16:05:48.031Z,15.80
2019-02-20T16:08:18.567Z,11.60
2019-02-20T16:10:48.323Z,11.07
2019-02-20T16:13:18.735Z,11.70
2019-02-20T16:15:48.319Z,12.13
2019-02-20T16:18:19.989Z,11.80
2019-02-20T16:20:49.912Z,12.77
2019-02-20T16:23:19.464Z,12.47
2019-02-20T16:25:49.683Z,13.27
2019-02-20T16:28:20.136Z,12.33
2019-02-20T16:30:49.774Z,12.60
2019-02-20T16:33:20.629Z,12.90
2019-02-20T16:35:50.440Z,13.10
2019-02-20T16:38:20.508Z,12.33
2019-02-20T16:40:50.544Z,13.33
2019-02-20T16:43:20.791Z,12.70
2019-02-20T16:45:51.510Z,12.13
2019-02-20T16:48:21.912Z,13.40
2019-02-20T16:50:51.808Z,12.70
2019-02-20T16:53:22.195Z,14.23
2019-02-20T16:55:52.486Z,13.53
2019-02-20T16:58:22.323Z,13.70
2019-02-20T17:00:52.129Z,13.90
2019-02-20T17:03:21.686Z,14.50
2019-02-20T17:05:51.977Z,13.83
2019-02-20T17:08:22.535Z,13.83
2019-02-20T17:10:55.190Z,13.80
2019-02-20T17:13:24.936Z,14.23
2019-02-20T17:15:56.535Z,14.40
2019-02-20T17:18:34.328Z,14.23
2019-02-20T17:21:06.348Z,14.77
2019-02-20T17:23:36.147Z,14.77
2019-02-20T17:26:06.586Z,15.07
2019-02-20T17:28:36.738Z,15.47
2019-02-20T17:31:07.583Z,14.03
2019-02-20T17:33:37.497Z,13.43
2019-02-20T17:36:07.368Z,14.73
2019-02-20T17:38:37.020Z,15.57
2019-02-20T17:41:07.148Z,16.20
2019-02-20T17:43:36.960Z,16.00
2019-02-20T17:46:06.561Z,15.70
2019-02-20T17:48:36.099Z,17.03
2019-02-20T17:51:05.846Z,17.03
2019-02-20T17:53:35.893Z,22.60
2019-02-20T17:56:05.533Z,18.33
2019-02-20T17:58:35.263Z,19.63
2019-02-20T18:01:08.023Z,17.10
2019-02-20T18:03:37.721Z,19.07
2019-02-20T18:06:08.456Z,18.40
2019-02-20T18:08:38.348Z,20.50
2019-02-20T18:11:08.104Z,19.63
2019-02-20T18:13:37.818Z,19.30
2019-02-20T18:16:07.394Z,25.67
2019-02-20T18:18:37.114Z,20.27
2019-02-20T18:21:07.018Z,20.50
2019-02-20T18:23:36.636Z,21.13
2019-02-20T18:26:06.215Z,21.37
2019-02-20T18:28:35.752Z,21.10
2019-02-20T18:31:05.501Z,21.40
2019-02-20T18:33:35.354Z,21.17
2019-02-20T18:36:06.230Z,20.40
2019-02-20T18:38:35.893Z,23.07
2019-02-20T18:41:05.946Z,23.30
2019-02-20T18:43:35.852Z,24.30
2019-02-20T18:46:05.948Z,25.07
2019-02-20T18:48:37.412Z,27.20
2019-02-20T18:51:07.013Z,26.33
2019-02-20T18:53:37.095Z,25.87
2019-02-20T18:56:06.683Z,26.13
2019-02-20T18:58:36.897Z,28.77
2019-02-20T19:01:06.662Z,27.77
2019-02-20T19:03:36.701Z,26.57
2019-02-20T19:06:06.271Z,26.13
2019-02-20T19:08:47.750Z,25.87
2019-02-20T19:11:33.328Z,28.07
2019-02-20T19:14:14.378Z,27.80
2019-02-20T19:17:30.068Z,26.70
2019-02-20T19:20:26.103Z,25.00
2019-02-20T19:23:22.054Z,27.43
2019-02-20T19:26:32.549Z,27.10
2019-02-20T19:29:45.218Z,25.27
2019-02-20T19:32:38.894Z,25.70
2019-02-20T19:35:22.785Z,25.17
2019-02-20T19:38:13.360Z,23.27
2019-02-20T19:41:32.723Z,22.90
2019-02-20T19:44:45.439Z,19.70
2019-02-20T19:47:40.184Z,19.13
2019-02-20T19:50:44.368Z,20.70
2019-02-20T19:53:52.933Z,23.10
2019-02-20T19:56:48.362Z,24.67
2019-02-20T19:59:36.495Z,24.90
2019-02-20T20:02:47.336Z,26.33
2019-02-20T20:05:57.306Z,28.27
2019-02-20T20:08:48.564Z,28.97
2019-02-20T20:11:56.486Z,28.67
2019-02-20T20:15:03.656Z,28.53
2019-02-20T20:18:31.737Z,27.90
2019-02-20T20:21:30.153Z,28.30
2019-02-20T20:24:40.865Z,29.13
2019-02-20T20:27:50.266Z,27.20
2019-02-20T20:30:52.287Z,29.43
2019-02-20T20:33:40.506Z,27.87
2019-02-20T20:36:33.313Z,27.87
2019-02-20T20:39:29.431Z,26.37
2019-02-20T20:42:38.808Z,27.13
2019-02-20T20:45:35.507Z,27.97
2019-02-20T20:48:17.401Z,26.03
2019-02-20T20:51:06.166Z,25.50
2019-02-20T20:53:56.041Z,27.73
2019-02-20T20:57:00.415Z,26.67
2019-02-20T21:00:20.694Z,26.47
2019-02-20T21:03:03.891Z,28.20
2019-02-20T21:06:32.139Z,29.77
2019-02-20T21:09:15.687Z,29.10
2019-02-20T21:12:10.242Z,30.87
2019-02-20T21:15:07.568Z,31.63
2019-02-20T21:18:26.716Z,31.60
2019-02-20T21:21:05.450Z,31.67
2019-02-20T21:24:14.429Z,33.63
2019-02-20T21:27:34.184Z,33.93
2019-02-20T21:30:50.512Z,34.53
2019-02-20T21:34:11.420Z,35.33
2019-02-20T21:37:08.247Z,35.23
2019-02-20T21:40:05.452Z,34.50
2019-02-20T21:43:00.238Z,34.80
2019-02-20T21:46:03.931Z,33.10
2019-02-20T21:49:08.725Z,34.03
2019-02-20T21:52:25.338Z,31.70
2019-02-20T21:55:30.684Z,31.57
2019-02-20T21:58:16.185Z,31.87
2019-02-20T22:01:11.823Z,33.03
2019-02-20T22:04:25.510Z,31.80
2019-02-20T22:07:34.744Z,31.40
2019-02-20T22:10:54.478Z,31.63
2019-02-20T22:13:56.674Z,33.50
2019-02-20T22:17:10.441Z,33.47
2019-02-20T22:19:57.255Z,34.20
2019-02-20T22:23:04.071Z,33.23
2019-02-20T22:26:01.629Z,32.73
2019-02-20T22:29:08.187Z,32.47
2019-02-20T22:32:02.544Z,33.93
2019-02-20T22:34:54.291Z,34.63
2019-02-20T22:37:50.527Z,33.43
2019-02-20T22:40:48.943Z,32.43
2019-02-20T22:43:48.252Z,32.90
2019-02-20T22:46:55.182Z,31.77
2019-02-20T22:49:51.525Z,32.87
2019-02-20T22:52:51.425Z,31.53
2019-02-20T22:56:11.645Z,29.50
2019-02-20T22:59:37.160Z,30.90
2019-02-20T23:02:38.892Z,30.23
2019-02-20T23:05:41.405Z,29.23
2019-02-20T23:08:43.593Z,28.50
2019-02-20T23:11:50.831Z,30.27
2019-02-20T23:14:45.971Z,29.00
2019-02-20T23:17:15.542Z,27.87
2019-02-20T23:19:45.096Z,29.97
2019-02-20T23:22:14.566Z,28.90
2019-02-20T23:24:44.128Z,27.93
2019-02-20T23:27:13.862Z,30.00
2019-02-20T23:29:43.506Z,28.43
2019-02-20T23:32:13.037Z,28.83
2019-02-20T23:34:42.700Z,28.03
2019-02-20T23:37:12.175Z,28.53
2019-02-20T23:39:42.012Z,27.27
2019-02-20T23:42:11.765Z,29.00
2019-02-20T23:44:41.539Z,27.60
2019-02-20T23:47:11.206Z,27.07
2019-02-20T23:49:40.777Z,27.47
2019-02-20T23:52:10.456Z,28.50
2019-02-20T23:54:40.462Z,28.23
2019-02-20T23:57:10.531Z,28.23
2019-02-20T23:59:40.081Z,28.60
